sensor_id;sensor_type;location;lat;lon;timestamp;P1;durP1;ratioP1;P2;durP2;ratioP2
25846;SDS011;13676;50.168;8.568;2022-08-01T00:00:41;1.02;;;0.63;;
25846;SDS011;13676;50.168;8.568;2022-08-01T00:03:09;1.42;;;0.60;;
25846;SDS011;13676;50.168;8.568;2022-08-01T00:05:34;0.55;;;0.45;;
25846;SDS011;13676;50.168;8.568;2022-08-01T00:08:00;0.45;;;0.40;;
25846;SDS011;13676;50.168;8.568;2022-08-01T00:10:25;0.90;;;0.52;;
25846;SDS011;13676;50.168;8.568;2022-08-01T00:12:50;0.90;;;0.50;;
25846;SDS011;13676;50.168;8.568;2022-08-01T00:15:16;0.50;;;0.40;;
25846;SDS011;13676;50.168;8.568;2022-08-01T00:17:42;0.52;;;0.52;;
25846;SDS011;13676;50.168;8.568;2022-08-01T00:20:09;2.30;;;0.73;;
25846;SDS011;13676;50.168;8.568;2022-08-01T00:22:35;1.25;;;0.68;;
25846;SDS011;13676;50.168;8.568;2022-08-01T00:25:02;1.63;;;0.57;;
25846;SDS011;13676;50.168;8.568;2022-08-01T00:27:28;0.47;;;0.47;;
25846;SDS011;13676;50.168;8.568;2022-08-01T00:29:53;0.93;;;0.55;;
25846;SDS011;13676;50.168;8.568;2022-08-01T00:32:19;2.53;;;0.73;;
25846;SDS011;13676;50.168;8.568;2022-08-01T00:34:44;4.10;;;0.70;;
25846;SDS011;13676;50.168;8.568;2022-08-01T00:37:09;1.23;;;0.60;;
25846;SDS011;13676;50.168;8.568;2022-08-01T00:39:35;1.25;;;0.47;;
25846;SDS011;13676;50.168;8.568;2022-08-01T00:42:05;1.67;;;0.90;;
25846;SDS011;13676;50.168;8.568;2022-08-01T00:44:32;0.70;;;0.45;;
25846;SDS011;13676;50.168;8.568;2022-08-01T00:46:57;1.70;;;0.70;;
25846;SDS011;13676;50.168;8.568;2022-08-01T00:49:23;1.63;;;0.68;;
25846;SDS011;13676;50.168;8.568;2022-08-01T00:51:48;2.35;;;0.70;;
25846;SDS011;13676;50.168;8.568;2022-08-01T00:54:14;1.08;;;0.50;;
25846;SDS011;13676;50.168;8.568;2022-08-01T00:56:40;1.40;;;0.67;;
25846;SDS011;13676;50.168;8.568;2022-08-01T00:59:05;1.35;;;0.65;;
25846;SDS011;13676;50.168;8.568;2022-08-01T01:01:31;1.00;;;0.75;;
25846;SDS011;13676;50.168;8.568;2022-08-01T01:03:56;1.38;;;0.60;;
25846;SDS011;13676;50.168;8.568;2022-08-01T01:19:54;0.82;;;0.60;;
25846;SDS011;13676;50.168;8.568;2022-08-01T01:30:18;3.20;;;0.85;;
25846;SDS011;13676;50.168;8.568;2022-08-01T01:32:44;1.77;;;0.68;;
25846;SDS011;13676;50.168;8.568;2022-08-01T01:35:17;0.93;;;0.52;;
25846;SDS011;13676;50.168;8.568;2022-08-01T01:37:46;0.70;;;0.50;;
25846;SDS011;13676;50.168;8.568;2022-08-01T01:40:13;1.38;;;0.65;;
25846;SDS011;13676;50.168;8.568;2022-08-01T01:42:39;1.00;;;0.57;;
25846;SDS011;13676;50.168;8.568;2022-08-01T01:47:32;0.82;;;0.50;;
25846;SDS011;13676;50.168;8.568;2022-08-01T01:49:58;1.17;;;0.70;;
25846;SDS011;13676;50.168;8.568;2022-08-01T01:52:24;1.50;;;0.80;;
25846;SDS011;13676;50.168;8.568;2022-08-01T01:54:51;0.80;;;0.60;;
25846;SDS011;13676;50.168;8.568;2022-08-01T01:57:18;0.80;;;0.45;;
25846;SDS011;13676;50.168;8.568;2022-08-01T01:59:44;1.13;;;0.53;;
25846;SDS011;13676;50.168;8.568;2022-08-01T02:02:10;1.00;;;0.70;;
25846;SDS011;13676;50.168;8.568;2022-08-01T02:04:38;1.55;;;0.65;;
25846;SDS011;13676;50.168;8.568;2022-08-01T02:07:05;1.55;;;0.65;;
25846;SDS011;13676;50.168;8.568;2022-08-01T02:09:33;1.30;;;0.70;;
25846;SDS011;13676;50.168;8.568;2022-08-01T02:11:59;1.08;;;0.60;;
25846;SDS011;13676;50.168;8.568;2022-08-01T02:14:26;1.08;;;0.60;;
25846;SDS011;13676;50.168;8.568;2022-08-01T02:16:52;0.60;;;0.50;;
25846;SDS011;13676;50.168;8.568;2022-08-01T02:19:20;1.13;;;0.68;;
25846;SDS011;13676;50.168;8.568;2022-08-01T02:21:50;0.60;;;0.50;;
25846;SDS011;13676;50.168;8.568;2022-08-01T02:27:14;0.80;;;0.60;;
25846;SDS011;13676;50.168;8.568;2022-08-01T02:29:47;1.70;;;0.57;;
25846;SDS011;13676;50.168;8.568;2022-08-01T02:32:20;0.57;;;0.50;;
25846;SDS011;13676;50.168;8.568;2022-08-01T02:35:09;1.58;;;0.50;;
25846;SDS011;13676;50.168;8.568;2022-08-01T02:37:37;0.55;;;0.40;;
25846;SDS011;13676;50.168;8.568;2022-08-01T02:40:03;3.40;;;0.63;;
25846;SDS011;13676;50.168;8.568;2022-08-01T02:42:29;1.33;;;0.70;;
25846;SDS011;13676;50.168;8.568;2022-08-01T02:44:56;2.60;;;0.77;;
25846;SDS011;13676;50.168;8.568;2022-08-01T02:47:22;0.80;;;0.70;;
25846;SDS011;13676;50.168;8.568;2022-08-01T02:49:48;1.65;;;0.77;;
25846;SDS011;13676;50.168;8.568;2022-08-01T02:52:16;2.63;;;0.70;;
25846;SDS011;13676;50.168;8.568;2022-08-01T02:54:43;3.55;;;0.90;;
25846;SDS011;13676;50.168;8.568;2022-08-01T02:57:10;2.63;;;0.95;;
25846;SDS011;13676;50.168;8.568;2022-08-01T02:59:37;0.88;;;0.60;;
25846;SDS011;13676;50.168;8.568;2022-08-01T03:02:03;2.08;;;0.57;;
25846;SDS011;13676;50.168;8.568;2022-08-01T03:04:30;1.65;;;0.80;;
25846;SDS011;13676;50.168;8.568;2022-08-01T03:06:58;1.40;;;0.70;;
25846;SDS011;13676;50.168;8.568;2022-08-01T03:09:28;0.65;;;0.65;;
25846;SDS011;13676;50.168;8.568;2022-08-01T03:11:55;1.40;;;0.60;;
25846;SDS011;13676;50.168;8.568;2022-08-01T03:14:24;1.63;;;0.88;;
25846;SDS011;13676;50.168;8.568;2022-08-01T03:16:50;0.85;;;0.60;;
25846;SDS011;13676;50.168;8.568;2022-08-01T03:19:16;1.00;;;0.50;;
25846;SDS011;13676;50.168;8.568;2022-08-01T03:21:43;1.08;;;0.68;;
25846;SDS011;13676;50.168;8.568;2022-08-01T03:24:09;1.13;;;0.63;;
25846;SDS011;13676;50.168;8.568;2022-08-01T03:26:35;1.15;;;0.70;;
25846;SDS011;13676;50.168;8.568;2022-08-01T03:29:05;1.80;;;0.73;;
25846;SDS011;13676;50.168;8.568;2022-08-01T03:31:35;1.23;;;0.70;;
25846;SDS011;13676;50.168;8.568;2022-08-01T03:34:01;1.45;;;0.90;;
25846;SDS011;13676;50.168;8.568;2022-08-01T03:36:28;2.22;;;0.85;;
25846;SDS011;13676;50.168;8.568;2022-08-01T03:38:55;0.80;;;0.80;;
25846;SDS011;13676;50.168;8.568;2022-08-01T03:41:22;1.25;;;0.60;;
25846;SDS011;13676;50.168;8.568;2022-08-01T03:46:26;0.77;;;0.60;;
25846;SDS011;13676;50.168;8.568;2022-08-01T03:48:55;1.33;;;0.73;;
25846;SDS011;13676;50.168;8.568;2022-08-01T03:51:23;3.55;;;0.77;;
25846;SDS011;13676;50.168;8.568;2022-08-01T03:53:49;2.80;;;0.80;;
25846;SDS011;13676;50.168;8.568;2022-08-01T03:56:18;1.65;;;0.80;;
25846;SDS011;13676;50.168;8.568;2022-08-01T03:58:46;0.80;;;0.80;;
25846;SDS011;13676;50.168;8.568;2022-08-01T04:01:12;1.58;;;0.70;;
25846;SDS011;13676;50.168;8.568;2022-08-01T04:03:37;1.05;;;0.77;;
25846;SDS011;13676;50.168;8.568;2022-08-01T04:06:04;1.15;;;0.60;;
25846;SDS011;13676;50.168;8.568;2022-08-01T04:08:36;1.02;;;0.50;;
25846;SDS011;13676;50.168;8.568;2022-08-01T04:11:03;0.98;;;0.60;;
25846;SDS011;13676;50.168;8.568;2022-08-01T04:13:28;1.75;;;0.68;;
25846;SDS011;13676;50.168;8.568;2022-08-01T04:15:54;0.65;;;0.65;;
25846;SDS011;13676;50.168;8.568;2022-08-01T04:18:20;0.60;;;0.60;;
25846;SDS011;13676;50.168;8.568;2022-08-01T04:20:48;1.30;;;0.77;;
25846;SDS011;13676;50.168;8.568;2022-08-01T04:23:15;0.70;;;0.50;;
25846;SDS011;13676;50.168;8.568;2022-08-01T04:28:07;2.97;;;0.57;;
25846;SDS011;13676;50.168;8.568;2022-08-01T04:30:41;1.20;;;0.90;;
25846;SDS011;13676;50.168;8.568;2022-08-01T04:33:07;2.50;;;0.68;;
25846;SDS011;13676;50.168;8.568;2022-08-01T04:35:34;1.67;;;0.80;;
25846;SDS011;13676;50.168;8.568;2022-08-01T04:38:01;1.73;;;1.00;;
25846;SDS011;13676;50.168;8.568;2022-08-01T04:40:28;3.78;;;0.90;;
25846;SDS011;13676;50.168;8.568;2022-08-01T04:42:53;0.65;;;0.60;;
25846;SDS011;13676;50.168;8.568;2022-08-01T04:45:19;0.80;;;0.70;;
25846;SDS011;13676;50.168;8.568;2022-08-01T04:47:44;1.95;;;0.80;;
25846;SDS011;13676;50.168;8.568;2022-08-01T04:50:10;1.20;;;0.80;;
25846;SDS011;13676;50.168;8.568;2022-08-01T04:52:36;2.30;;;0.68;;
25846;SDS011;13676;50.168;8.568;2022-08-01T04:55:03;1.83;;;0.68;;
25846;SDS011;13676;50.168;8.568;2022-08-01T04:57:31;1.20;;;0.80;;
25846;SDS011;13676;50.168;8.568;2022-08-01T04:59:58;2.28;;;0.70;;
25846;SDS011;13676;50.168;8.568;2022-08-01T05:02:24;0.70;;;0.57;;
25846;SDS011;13676;50.168;8.568;2022-08-01T05:04:52;2.25;;;0.65;;
25846;SDS011;13676;50.168;8.568;2022-08-01T05:07:17;4.35;;;1.13;;
25846;SDS011;13676;50.168;8.568;2022-08-01T05:09:42;1.38;;;0.85;;
25846;SDS011;13676;50.168;8.568;2022-08-01T05:12:10;4.05;;;0.70;;
25846;SDS011;13676;50.168;8.568;2022-08-01T05:14:36;1.40;;;0.85;;
25846;SDS011;13676;50.168;8.568;2022-08-01T05:17:02;1.30;;;0.80;;
25846;SDS011;13676;50.168;8.568;2022-08-01T05:19:32;0.60;;;0.60;;
25846;SDS011;13676;50.168;8.568;2022-08-01T05:22:02;1.15;;;0.82;;
25846;SDS011;13676;50.168;8.568;2022-08-01T05:24:33;1.70;;;0.98;;
25846;SDS011;13676;50.168;8.568;2022-08-01T05:27:02;2.10;;;1.00;;
25846;SDS011;13676;50.168;8.568;2022-08-01T05:29:28;1.48;;;0.80;;
25846;SDS011;13676;50.168;8.568;2022-08-01T05:31:53;0.80;;;0.55;;
25846;SDS011;13676;50.168;8.568;2022-08-01T05:34:19;1.05;;;0.60;;
25846;SDS011;13676;50.168;8.568;2022-08-01T05:36:45;1.33;;;0.80;;
25846;SDS011;13676;50.168;8.568;2022-08-01T05:39:11;1.60;;;0.60;;
25846;SDS011;13676;50.168;8.568;2022-08-01T05:41:37;1.00;;;0.75;;
25846;SDS011;13676;50.168;8.568;2022-08-01T05:44:06;3.35;;;0.70;;
25846;SDS011;13676;50.168;8.568;2022-08-01T05:46:32;0.88;;;0.70;;
25846;SDS011;13676;50.168;8.568;2022-08-01T05:48:58;1.00;;;0.70;;
25846;SDS011;13676;50.168;8.568;2022-08-01T05:51:23;2.30;;;0.75;;
25846;SDS011;13676;50.168;8.568;2022-08-01T05:53:48;1.83;;;0.80;;
25846;SDS011;13676;50.168;8.568;2022-08-01T05:56:14;1.17;;;0.80;;
25846;SDS011;13676;50.168;8.568;2022-08-01T05:58:39;1.35;;;0.82;;
25846;SDS011;13676;50.168;8.568;2022-08-01T06:01:05;0.88;;;0.70;;
25846;SDS011;13676;50.168;8.568;2022-08-01T06:03:30;0.93;;;0.82;;
25846;SDS011;13676;50.168;8.568;2022-08-01T06:05:58;0.85;;;0.73;;
25846;SDS011;13676;50.168;8.568;2022-08-01T06:08:24;0.82;;;0.73;;
25846;SDS011;13676;50.168;8.568;2022-08-01T06:10:49;1.55;;;0.70;;
25846;SDS011;13676;50.168;8.568;2022-08-01T06:13:14;1.25;;;0.80;;
25846;SDS011;13676;50.168;8.568;2022-08-01T06:15:40;1.83;;;0.98;;
25846;SDS011;13676;50.168;8.568;2022-08-01T06:18:05;1.13;;;0.95;;
25846;SDS011;13676;50.168;8.568;2022-08-01T06:20:31;1.45;;;1.23;;
25846;SDS011;13676;50.168;8.568;2022-08-01T06:22:56;2.05;;;1.50;;
25846;SDS011;13676;50.168;8.568;2022-08-01T06:25:21;3.75;;;1.63;;
25846;SDS011;13676;50.168;8.568;2022-08-01T06:27:47;3.42;;;1.75;;
25846;SDS011;13676;50.168;8.568;2022-08-01T06:30:13;2.45;;;1.75;;
25846;SDS011;13676;50.168;8.568;2022-08-01T06:32:38;1.92;;;1.48;;
25846;SDS011;13676;50.168;8.568;2022-08-01T06:35:04;1.65;;;1.52;;
25846;SDS011;13676;50.168;8.568;2022-08-01T06:37:30;1.80;;;1.60;;
25846;SDS011;13676;50.168;8.568;2022-08-01T06:40:06;2.30;;;1.48;;
25846;SDS011;13676;50.168;8.568;2022-08-01T06:42:33;2.03;;;1.60;;
25846;SDS011;13676;50.168;8.568;2022-08-01T06:45:08;2.67;;;2.00;;
25846;SDS011;13676;50.168;8.568;2022-08-01T06:47:35;1.80;;;1.70;;
25846;SDS011;13676;50.168;8.568;2022-08-01T06:50:01;2.70;;;1.87;;
25846;SDS011;13676;50.168;8.568;2022-08-01T06:52:27;2.38;;;1.63;;
25846;SDS011;13676;50.168;8.568;2022-08-01T06:54:53;2.83;;;1.70;;
25846;SDS011;13676;50.168;8.568;2022-08-01T06:57:18;1.98;;;1.50;;
25846;SDS011;13676;50.168;8.568;2022-08-01T06:59:44;2.63;;;1.60;;
25846;SDS011;13676;50.168;8.568;2022-08-01T07:02:09;1.77;;;1.60;;
25846;SDS011;13676;50.168;8.568;2022-08-01T07:04:34;3.83;;;2.08;;
25846;SDS011;13676;50.168;8.568;2022-08-01T07:07:00;2.30;;;1.92;;
25846;SDS011;13676;50.168;8.568;2022-08-01T07:09:26;2.15;;;1.95;;
25846;SDS011;13676;50.168;8.568;2022-08-01T07:11:52;2.85;;;2.25;;
25846;SDS011;13676;50.168;8.568;2022-08-01T07:14:19;3.38;;;2.35;;
25846;SDS011;13676;50.168;8.568;2022-08-01T07:16:45;2.55;;;2.35;;
25846;SDS011;13676;50.168;8.568;2022-08-01T07:19:10;2.50;;;2.30;;
25846;SDS011;13676;50.168;8.568;2022-08-01T07:21:35;2.80;;;1.88;;
25846;SDS011;13676;50.168;8.568;2022-08-01T07:24:01;2.20;;;1.90;;
25846;SDS011;13676;50.168;8.568;2022-08-01T07:26:26;2.25;;;2.08;;
25846;SDS011;13676;50.168;8.568;2022-08-01T07:28:52;2.45;;;2.08;;
25846;SDS011;13676;50.168;8.568;2022-08-01T07:31:18;2.17;;;1.98;;
25846;SDS011;13676;50.168;8.568;2022-08-01T07:33:44;2.75;;;2.08;;
25846;SDS011;13676;50.168;8.568;2022-08-01T07:36:09;2.85;;;2.10;;
25846;SDS011;13676;50.168;8.568;2022-08-01T07:38:34;3.78;;;2.40;;
25846;SDS011;13676;50.168;8.568;2022-08-01T07:41:00;3.75;;;2.28;;
25846;SDS011;13676;50.168;8.568;2022-08-01T07:43:25;1.90;;;1.70;;
25846;SDS011;13676;50.168;8.568;2022-08-01T07:45:50;2.38;;;2.15;;
25846;SDS011;13676;50.168;8.568;2022-08-01T07:48:16;3.03;;;2.17;;
25846;SDS011;13676;50.168;8.568;2022-08-01T07:50:41;2.25;;;2.05;;
25846;SDS011;13676;50.168;8.568;2022-08-01T07:53:06;2.30;;;1.77;;
25846;SDS011;13676;50.168;8.568;2022-08-01T07:55:32;2.50;;;2.28;;
25846;SDS011;13676;50.168;8.568;2022-08-01T07:57:57;3.45;;;2.20;;
25846;SDS011;13676;50.168;8.568;2022-08-01T08:00:23;1.85;;;1.75;;
25846;SDS011;13676;50.168;8.568;2022-08-01T08:02:48;3.17;;;2.22;;
25846;SDS011;13676;50.168;8.568;2022-08-01T08:05:14;2.38;;;2.17;;
25846;SDS011;13676;50.168;8.568;2022-08-01T08:07:39;2.78;;;2.10;;
25846;SDS011;13676;50.168;8.568;2022-08-01T08:10:05;3.08;;;2.33;;
25846;SDS011;13676;50.168;8.568;2022-08-01T08:12:33;2.28;;;2.00;;
25846;SDS011;13676;50.168;8.568;2022-08-01T08:14:58;3.35;;;2.35;;
25846;SDS011;13676;50.168;8.568;2022-08-01T08:17:25;3.85;;;2.80;;
25846;SDS011;13676;50.168;8.568;2022-08-01T08:19:50;3.38;;;2.30;;
25846;SDS011;13676;50.168;8.568;2022-08-01T08:22:16;2.53;;;1.92;;
25846;SDS011;13676;50.168;8.568;2022-08-01T08:24:41;2.50;;;1.70;;
25846;SDS011;13676;50.168;8.568;2022-08-01T08:27:06;2.65;;;1.90;;
25846;SDS011;13676;50.168;8.568;2022-08-01T08:29:32;2.63;;;2.17;;
25846;SDS011;13676;50.168;8.568;2022-08-01T08:31:58;3.10;;;1.98;;
25846;SDS011;13676;50.168;8.568;2022-08-01T08:34:24;2.03;;;1.75;;
25846;SDS011;13676;50.168;8.568;2022-08-01T08:36:51;3.25;;;2.50;;
25846;SDS011;13676;50.168;8.568;2022-08-01T08:39:17;2.75;;;2.15;;
25846;SDS011;13676;50.168;8.568;2022-08-01T08:41:43;2.22;;;2.03;;
25846;SDS011;13676;50.168;8.568;2022-08-01T08:44:09;3.53;;;2.22;;
25846;SDS011;13676;50.168;8.568;2022-08-01T08:46:38;2.92;;;2.20;;
25846;SDS011;13676;50.168;8.568;2022-08-01T08:49:06;1.70;;;1.60;;
25846;SDS011;13676;50.168;8.568;2022-08-01T08:51:33;3.35;;;2.10;;
25846;SDS011;13676;50.168;8.568;2022-08-01T08:53:59;2.03;;;1.83;;
25846;SDS011;13676;50.168;8.568;2022-08-01T08:56:25;3.50;;;2.23;;
25846;SDS011;13676;50.168;8.568;2022-08-01T08:58:54;2.05;;;1.70;;
25846;SDS011;13676;50.168;8.568;2022-08-01T09:01:20;2.78;;;2.22;;
25846;SDS011;13676;50.168;8.568;2022-08-01T09:03:46;2.13;;;1.92;;
25846;SDS011;13676;50.168;8.568;2022-08-01T09:06:12;2.03;;;1.80;;
25846;SDS011;13676;50.168;8.568;2022-08-01T09:08:39;2.78;;;2.00;;
25846;SDS011;13676;50.168;8.568;2022-08-01T09:11:04;3.53;;;2.13;;
25846;SDS011;13676;50.168;8.568;2022-08-01T09:13:30;2.30;;;2.10;;
25846;SDS011;13676;50.168;8.568;2022-08-01T09:15:55;4.47;;;1.92;;
25846;SDS011;13676;50.168;8.568;2022-08-01T09:18:39;2.28;;;2.08;;
25846;SDS011;13676;50.168;8.568;2022-08-01T09:21:11;3.47;;;2.05;;
25846;SDS011;13676;50.168;8.568;2022-08-01T09:26:12;2.10;;;1.75;;
25846;SDS011;13676;50.168;8.568;2022-08-01T09:28:39;2.53;;;1.70;;
25846;SDS011;13676;50.168;8.568;2022-08-01T09:31:05;2.20;;;1.52;;
25846;SDS011;13676;50.168;8.568;2022-08-01T09:33:54;2.70;;;1.98;;
25846;SDS011;13676;50.168;8.568;2022-08-01T09:36:26;2.08;;;1.73;;
25846;SDS011;13676;50.168;8.568;2022-08-01T09:39:11;2.65;;;2.08;;
25846;SDS011;13676;50.168;8.568;2022-08-01T09:41:37;1.98;;;1.70;;
25846;SDS011;13676;50.168;8.568;2022-08-01T09:44:02;2.72;;;1.95;;
25846;SDS011;13676;50.168;8.568;2022-08-01T09:46:28;1.92;;;1.70;;
25846;SDS011;13676;50.168;8.568;2022-08-01T09:51:30;2.58;;;1.85;;
25846;SDS011;13676;50.168;8.568;2022-08-01T09:53:56;2.97;;;1.77;;
25846;SDS011;13676;50.168;8.568;2022-08-01T09:56:22;2.55;;;1.73;;
25846;SDS011;13676;50.168;8.568;2022-08-01T09:58:51;3.28;;;2.28;;
25846;SDS011;13676;50.168;8.568;2022-08-01T10:01:21;1.50;;;1.40;;
25846;SDS011;13676;50.168;8.568;2022-08-01T10:06:33;2.78;;;2.08;;
25846;SDS011;13676;50.168;8.568;2022-08-01T10:08:58;1.75;;;1.63;;
25846;SDS011;13676;50.168;8.568;2022-08-01T10:11:23;3.17;;;1.80;;
25846;SDS011;13676;50.168;8.568;2022-08-01T10:13:49;2.42;;;1.90;;
25846;SDS011;13676;50.168;8.568;2022-08-01T10:16:17;2.05;;;1.77;;
25846;SDS011;13676;50.168;8.568;2022-08-01T10:18:44;3.03;;;1.88;;
25846;SDS011;13676;50.168;8.568;2022-08-01T10:21:09;2.20;;;1.67;;
25846;SDS011;13676;50.168;8.568;2022-08-01T10:23:36;2.65;;;1.63;;
25846;SDS011;13676;50.168;8.568;2022-08-01T10:26:02;1.55;;;1.45;;
25846;SDS011;13676;50.168;8.568;2022-08-01T10:30:55;2.87;;;1.63;;
25846;SDS011;13676;50.168;8.568;2022-08-01T10:33:22;1.73;;;1.60;;
25846;SDS011;13676;50.168;8.568;2022-08-01T10:35:48;2.13;;;1.48;;
25846;SDS011;13676;50.168;8.568;2022-08-01T10:38:13;2.22;;;1.63;;
25846;SDS011;13676;50.168;8.568;2022-08-01T10:40:39;1.65;;;1.30;;
25846;SDS011;13676;50.168;8.568;2022-08-01T10:43:06;1.55;;;1.00;;
25846;SDS011;13676;50.168;8.568;2022-08-01T10:45:32;1.50;;;1.30;;
25846;SDS011;13676;50.168;8.568;2022-08-01T10:48:00;2.28;;;1.60;;
25846;SDS011;13676;50.168;8.568;2022-08-01T10:53:03;2.28;;;1.50;;
25846;SDS011;13676;50.168;8.568;2022-08-01T10:55:44;1.55;;;1.45;;
25846;SDS011;13676;50.168;8.568;2022-08-01T10:58:11;1.95;;;1.50;;
25846;SDS011;13676;50.168;8.568;2022-08-01T11:00:36;1.60;;;1.35;;
25846;SDS011;13676;50.168;8.568;2022-08-01T11:03:02;2.20;;;1.63;;
25846;SDS011;13676;50.168;8.568;2022-08-01T11:05:34;1.92;;;1.50;;
25846;SDS011;13676;50.168;8.568;2022-08-01T11:08:05;1.92;;;1.20;;
25846;SDS011;13676;50.168;8.568;2022-08-01T11:10:38;3.13;;;1.50;;
25846;SDS011;13676;50.168;8.568;2022-08-01T11:13:05;2.05;;;1.40;;
25846;SDS011;13676;50.168;8.568;2022-08-01T11:15:36;1.65;;;1.08;;
25846;SDS011;13676;50.168;8.568;2022-08-01T11:20:58;1.77;;;1.33;;
25846;SDS011;13676;50.168;8.568;2022-08-01T11:23:25;1.08;;;0.90;;
25846;SDS011;13676;50.168;8.568;2022-08-01T11:28:27;1.85;;;1.02;;
25846;SDS011;13676;50.168;8.568;2022-08-01T11:30:54;3.53;;;1.23;;
25846;SDS011;13676;50.168;8.568;2022-08-01T11:49:29;1.75;;;1.30;;
25846;SDS011;13676;50.168;8.568;2022-08-01T11:54:32;2.45;;;1.42;;
25846;SDS011;13676;50.168;8.568;2022-08-01T11:57:05;1.63;;;1.52;;
25846;SDS011;13676;50.168;8.568;2022-08-01T11:59:40;1.65;;;1.50;;
25846;SDS011;13676;50.168;8.568;2022-08-01T12:04:56;3.47;;;1.15;;
25846;SDS011;13676;50.168;8.568;2022-08-01T12:07:23;1.55;;;1.40;;
25846;SDS011;13676;50.168;8.568;2022-08-01T12:10:25;3.15;;;1.58;;
25846;SDS011;13676;50.168;8.568;2022-08-01T12:12:47;2.40;;;1.35;;
25846;SDS011;13676;50.168;8.568;2022-08-01T12:15:16;1.88;;;1.55;;
25846;SDS011;13676;50.168;8.568;2022-08-01T12:17:43;1.52;;;1.13;;
25846;SDS011;13676;50.168;8.568;2022-08-01T12:20:12;2.28;;;1.30;;
25846;SDS011;13676;50.168;8.568;2022-08-01T12:22:39;1.55;;;1.17;;
25846;SDS011;13676;50.168;8.568;2022-08-01T12:25:06;1.77;;;1.27;;
25846;SDS011;13676;50.168;8.568;2022-08-01T12:27:33;1.80;;;1.20;;
25846;SDS011;13676;50.168;8.568;2022-08-01T12:29:58;2.05;;;1.30;;
25846;SDS011;13676;50.168;8.568;2022-08-01T12:32:28;1.70;;;1.23;;
25846;SDS011;13676;50.168;8.568;2022-08-01T12:34:56;1.70;;;1.33;;
25846;SDS011;13676;50.168;8.568;2022-08-01T12:37:48;1.75;;;1.40;;
25846;SDS011;13676;50.168;8.568;2022-08-01T12:42:45;3.10;;;1.33;;
25846;SDS011;13676;50.168;8.568;2022-08-01T12:45:13;1.55;;;1.05;;
25846;SDS011;13676;50.168;8.568;2022-08-01T12:47:59;3.03;;;1.40;;
25846;SDS011;13676;50.168;8.568;2022-08-01T12:50:26;2.00;;;1.50;;
25846;SDS011;13676;50.168;8.568;2022-08-01T12:52:54;2.28;;;1.52;;
25846;SDS011;13676;50.168;8.568;2022-08-01T12:55:20;1.20;;;1.10;;
25846;SDS011;13676;50.168;8.568;2022-08-01T12:58:03;2.58;;;1.40;;
25846;SDS011;13676;50.168;8.568;2022-08-01T13:00:32;2.28;;;1.08;;
25846;SDS011;13676;50.168;8.568;2022-08-01T13:03:06;1.70;;;1.20;;
25846;SDS011;13676;50.168;8.568;2022-08-01T13:10:46;1.20;;;1.00;;
25846;SDS011;13676;50.168;8.568;2022-08-01T13:13:12;2.85;;;1.30;;
25846;SDS011;13676;50.168;8.568;2022-08-01T13:15:39;2.25;;;1.10;;
25846;SDS011;13676;50.168;8.568;2022-08-01T13:21:29;1.52;;;1.08;;
25846;SDS011;13676;50.168;8.568;2022-08-01T13:29:15;1.33;;;1.00;;
25846;SDS011;13676;50.168;8.568;2022-08-01T13:31:42;1.20;;;1.10;;
25846;SDS011;13676;50.168;8.568;2022-08-01T13:34:07;2.55;;;1.40;;
25846;SDS011;13676;50.168;8.568;2022-08-01T13:36:34;2.73;;;1.30;;
25846;SDS011;13676;50.168;8.568;2022-08-01T13:39:00;3.60;;;1.00;;
25846;SDS011;13676;50.168;8.568;2022-08-01T13:41:45;2.17;;;1.10;;
25846;SDS011;13676;50.168;8.568;2022-08-01T13:44:10;1.30;;;1.07;;
25846;SDS011;13676;50.168;8.568;2022-08-01T13:46:37;3.72;;;1.30;;
25846;SDS011;13676;50.168;8.568;2022-08-01T13:49:03;1.45;;;1.00;;
25846;SDS011;13676;50.168;8.568;2022-08-01T13:51:29;2.00;;;1.35;;
25846;SDS011;13676;50.168;8.568;2022-08-01T13:53:55;1.30;;;1.20;;
25846;SDS011;13676;50.168;8.568;2022-08-01T13:56:21;0.98;;;0.90;;
25846;SDS011;13676;50.168;8.568;2022-08-01T13:58:46;2.47;;;1.00;;
25846;SDS011;13676;50.168;8.568;2022-08-01T14:01:12;2.47;;;1.00;;
25846;SDS011;13676;50.168;8.568;2022-08-01T14:03:37;1.73;;;1.02;;
25846;SDS011;13676;50.168;8.568;2022-08-01T14:06:03;1.30;;;1.20;;
25846;SDS011;13676;50.168;8.568;2022-08-01T14:08:29;1.30;;;1.00;;
25846;SDS011;13676;50.168;8.568;2022-08-01T14:10:54;2.38;;;1.30;;
25846;SDS011;13676;50.168;8.568;2022-08-01T14:13:22;3.83;;;1.10;;
25846;SDS011;13676;50.168;8.568;2022-08-01T14:15:48;2.47;;;1.02;;
25846;SDS011;13676;50.168;8.568;2022-08-01T14:18:15;2.40;;;1.25;;
25846;SDS011;13676;50.168;8.568;2022-08-01T14:20:40;1.95;;;1.15;;
25846;SDS011;13676;50.168;8.568;2022-08-01T14:23:06;1.58;;;1.33;;
25846;SDS011;13676;50.168;8.568;2022-08-01T14:25:31;2.40;;;1.02;;
25846;SDS011;13676;50.168;8.568;2022-08-01T14:27:56;1.10;;;1.00;;
25846;SDS011;13676;50.168;8.568;2022-08-01T14:30:22;1.00;;;0.90;;
25846;SDS011;13676;50.168;8.568;2022-08-01T14:32:47;1.20;;;1.00;;
25846;SDS011;13676;50.168;8.568;2022-08-01T14:35:13;1.50;;;1.17;;
25846;SDS011;13676;50.168;8.568;2022-08-01T14:37:38;1.42;;;1.10;;
25846;SDS011;13676;50.168;8.568;2022-08-01T14:40:03;2.25;;;1.08;;
25846;SDS011;13676;50.168;8.568;2022-08-01T14:42:32;1.33;;;1.00;;
25846;SDS011;13676;50.168;8.568;2022-08-01T14:44:58;4.43;;;1.17;;
25846;SDS011;13676;50.168;8.568;2022-08-01T14:47:24;2.08;;;1.20;;
25846;SDS011;13676;50.168;8.568;2022-08-01T14:49:49;1.73;;;1.33;;
25846;SDS011;13676;50.168;8.568;2022-08-01T14:52:15;1.38;;;1.08;;
25846;SDS011;13676;50.168;8.568;2022-08-01T14:54:41;1.02;;;0.93;;
25846;SDS011;13676;50.168;8.568;2022-08-01T14:57:06;2.53;;;1.60;;
25846;SDS011;13676;50.168;8.568;2022-08-01T14:59:32;2.75;;;1.50;;
25846;SDS011;13676;50.168;8.568;2022-08-01T15:01:57;2.63;;;1.63;;
25846;SDS011;13676;50.168;8.568;2022-08-01T15:04:23;1.77;;;1.30;;
25846;SDS011;13676;50.168;8.568;2022-08-01T15:06:48;1.85;;;1.75;;
25846;SDS011;13676;50.168;8.568;2022-08-01T15:09:14;2.35;;;1.38;;
25846;SDS011;13676;50.168;8.568;2022-08-01T15:11:39;2.15;;;1.50;;
25846;SDS011;13676;50.168;8.568;2022-08-01T15:14:04;5.88;;;1.60;;
25846;SDS011;13676;50.168;8.568;2022-08-01T15:16:48;2.88;;;1.30;;
25846;SDS011;13676;50.168;8.568;2022-08-01T15:19:13;1.95;;;1.63;;
25846;SDS011;13676;50.168;8.568;2022-08-01T15:21:39;2.88;;;1.67;;
25846;SDS011;13676;50.168;8.568;2022-08-01T15:24:05;1.95;;;1.33;;
25846;SDS011;13676;50.168;8.568;2022-08-01T15:26:30;2.85;;;1.58;;
25846;SDS011;13676;50.168;8.568;2022-08-01T15:28:56;2.50;;;1.52;;
25846;SDS011;13676;50.168;8.568;2022-08-01T15:31:21;1.60;;;1.17;;
25846;SDS011;13676;50.168;8.568;2022-08-01T15:33:46;1.35;;;1.20;;
25846;SDS011;13676;50.168;8.568;2022-08-01T15:36:12;2.20;;;1.27;;
25846;SDS011;13676;50.168;8.568;2022-08-01T15:38:37;1.30;;;1.20;;
25846;SDS011;13676;50.168;8.568;2022-08-01T15:41:03;2.35;;;1.30;;
25846;SDS011;13676;50.168;8.568;2022-08-01T15:43:28;1.38;;;1.27;;
25846;SDS011;13676;50.168;8.568;2022-08-01T15:45:53;1.88;;;1.42;;
25846;SDS011;13676;50.168;8.568;2022-08-01T15:48:19;1.45;;;1.10;;
25846;SDS011;13676;50.168;8.568;2022-08-01T15:50:44;2.00;;;1.33;;
25846;SDS011;13676;50.168;8.568;2022-08-01T15:53:10;1.30;;;1.15;;
25846;SDS011;13676;50.168;8.568;2022-08-01T15:55:35;1.30;;;1.20;;
25846;SDS011;13676;50.168;8.568;2022-08-01T15:58:02;2.28;;;1.30;;
25846;SDS011;13676;50.168;8.568;2022-08-01T16:00:28;1.30;;;1.20;;
25846;SDS011;13676;50.168;8.568;2022-08-01T16:02:53;1.17;;;1.08;;
25846;SDS011;13676;50.168;8.568;2022-08-01T16:07:46;5.73;;;1.60;;
25846;SDS011;13676;50.168;8.568;2022-08-01T16:10:11;1.55;;;1.20;;
25846;SDS011;13676;50.168;8.568;2022-08-01T16:12:37;1.30;;;1.20;;
25846;SDS011;13676;50.168;8.568;2022-08-01T16:15:02;1.55;;;1.38;;
25846;SDS011;13676;50.168;8.568;2022-08-01T16:17:28;2.65;;;1.10;;